Aviation Digital Data Service (ADDS)

Output produced by METARs form (2114 UTC 08 August 2020)
found at http://www.aviationweather.gov/metar/data/
 
METAR text: RJNS 081200Z 24011KT 9999 VCSH FEW010 BKN/// 27/27 Q1011
Conditions at: RJNS (SHIZOUKA , JP) observed 1200 UTC 08 August 2020
Temperature: 27.0°C (81°F)
Dewpoint: 27.0°C (81°F) [RH = 100%]
Pressure (altimeter): 29.85 inches Hg (1011.0 mb)
Winds: from the WSW (240 degrees) at 13 MPH (11 knots; 5.7 m/s)
Visibility: 6 or more miles (10+ km)
Ceiling: at least 12,000 feet AGL
Clouds: few clouds at 1000 feet AGL
Weather: VCSH  (showers in vicinity)

METAR text: RJNS 081100Z 24010KT 200V270 9999 FEW012 BKN/// 27/27 Q1011
Conditions at: RJNS (SHIZOUKA , JP) observed 1100 UTC 08 August 2020
Temperature: 27.0°C (81°F)
Dewpoint: 27.0°C (81°F) [RH = 100%]
Pressure (altimeter): 29.85 inches Hg (1011.0 mb)
Winds: from the WSW (240 degrees) at 12 MPH (10 knots; 5.1 m/s)
Visibility: 6 or more miles (10+ km)
Ceiling: at least 12,000 feet AGL
Clouds: few clouds at 1200 feet AGL
Weather: no significant weather observed at this time

METAR text: RJNS 081000Z 24011KT 9999 FEW012 BKN/// 27/26 Q1010
Conditions at: RJNS (SHIZOUKA , JP) observed 1000 UTC 08 August 2020
Temperature: 27.0°C (81°F)
Dewpoint: 26.0°C (79°F) [RH = 94%]
Pressure (altimeter): 29.82 inches Hg (1010.0 mb)
Winds: from the WSW (240 degrees) at 13 MPH (11 knots; 5.7 m/s)
Visibility: 6 or more miles (10+ km)
Ceiling: at least 12,000 feet AGL
Clouds: few clouds at 1200 feet AGL
Weather: no significant weather observed at this time

METAR text: RJNS 080900Z 24009KT 9999 FEW014 BKN/// 28/26 Q1009
Conditions at: RJNS (SHIZOUKA , JP) observed 0900 UTC 08 August 2020
Temperature: 28.0°C (82°F)
Dewpoint: 26.0°C (79°F) [RH = 89%]
Pressure (altimeter): 29.79 inches Hg (1009.0 mb)
Winds: from the WSW (240 degrees) at 10 MPH (9 knots; 4.6 m/s)
Visibility: 6 or more miles (10+ km)
Ceiling: at least 12,000 feet AGL
Clouds: few clouds at 1400 feet AGL
Weather: no significant weather observed at this time

METAR text: RJNS 080800Z 23011KT 190V270 9999 FEW014 BKN/// 28/25 Q1009
Conditions at: RJNS (SHIZOUKA , JP) observed 0800 UTC 08 August 2020
Temperature: 28.0°C (82°F)
Dewpoint: 25.0°C (77°F) [RH = 84%]
Pressure (altimeter): 29.79 inches Hg (1009.0 mb)
Winds: from the SW (230 degrees) at 13 MPH (11 knots; 5.7 m/s)
Visibility: 6 or more miles (10+ km)
Ceiling: at least 12,000 feet AGL
Clouds: few clouds at 1400 feet AGL
Weather: no significant weather observed at this time

METAR text: RJNS 080700Z 22013KT 9999 FEW020 BKN/// 30/23 Q1009
Conditions at: RJNS (SHIZOUKA , JP) observed 0700 UTC 08 August 2020
Temperature: 30.0°C (86°F)
Dewpoint: 23.0°C (73°F) [RH = 66%]
Pressure (altimeter): 29.79 inches Hg (1009.0 mb)
Winds: from the SW (220 degrees) at 15 MPH (13 knots; 6.7 m/s)
Visibility: 6 or more miles (10+ km)
Ceiling: at least 12,000 feet AGL
Clouds: few clouds at 2000 feet AGL
Weather: no significant weather observed at this time

METAR text: RJNS 080600Z 23012G22KT 200V270 9999 FEW020 BKN/// 30/23 Q1008
Conditions at: RJNS (SHIZOUKA , JP) observed 0600 UTC 08 August 2020
Temperature: 30.0°C (86°F)
Dewpoint: 23.0°C (73°F) [RH = 66%]
Pressure (altimeter): 29.76 inches Hg (1008.0 mb)
Winds: from the SW (230 degrees) at 14 MPH (12 knots; 6.2 m/s)
gusting to 25 MPH (22 knots; 11.3 m/s)
Visibility: 6 or more miles (10+ km)
Ceiling: at least 12,000 feet AGL
Clouds: few clouds at 2000 feet AGL
Weather: no significant weather observed at this time

METAR text: RJNS 080500Z 21017KT 9999 FEW025 BKN/// 30/22 Q1008
Conditions at: RJNS (SHIZOUKA , JP) observed 0500 UTC 08 August 2020
Temperature: 30.0°C (86°F)
Dewpoint: 22.0°C (72°F) [RH = 62%]
Pressure (altimeter): 29.76 inches Hg (1008.0 mb)
Winds: from the SSW (210 degrees) at 20 MPH (17 knots; 8.7 m/s)
Visibility: 6 or more miles (10+ km)
Ceiling: at least 12,000 feet AGL
Clouds: few clouds at 2500 feet AGL
Weather: no significant weather observed at this time

METAR text: RJNS 080400Z 21016KT 8000 FEW025 BKN/// 31/22 Q1009
Conditions at: RJNS (SHIZOUKA , JP) observed 0400 UTC 08 August 2020
Temperature: 31.0°C (88°F)
Dewpoint: 22.0°C (72°F) [RH = 59%]
Pressure (altimeter): 29.79 inches Hg (1009.0 mb)
Winds: from the SSW (210 degrees) at 18 MPH (16 knots; 8.2 m/s)
Visibility: 5 miles ( 8 km)
Ceiling: at least 12,000 feet AGL
Clouds: few clouds at 2500 feet AGL
Weather: no significant weather observed at this time

METAR text: RJNS 080300Z 23010KT 200V260 7000 FEW025 BKN/// 31/24 Q1009
Conditions at: RJNS (SHIZOUKA , JP) observed 0300 UTC 08 August 2020
Temperature: 31.0°C (88°F)
Dewpoint: 24.0°C (75°F) [RH = 66%]
Pressure (altimeter): 29.79 inches Hg (1009.0 mb)
Winds: from the SW (230 degrees) at 12 MPH (10 knots; 5.1 m/s)
Visibility: 4 miles ( 7 km)
Ceiling: at least 12,000 feet AGL
Clouds: few clouds at 2500 feet AGL
Weather: no significant weather observed at this time

METAR text: RJNS 080200Z 24011KT 9000 FEW025 BKN/// 31/23 Q1009
Conditions at: RJNS (SHIZOUKA , JP) observed 0200 UTC 08 August 2020
Temperature: 31.0°C (88°F)
Dewpoint: 23.0°C (73°F) [RH = 63%]
Pressure (altimeter): 29.79 inches Hg (1009.0 mb)
Winds: from the WSW (240 degrees) at 13 MPH (11 knots; 5.7 m/s)
Visibility: 6 miles ( 9 km)
Ceiling: at least 12,000 feet AGL
Clouds: few clouds at 2500 feet AGL
Weather: no significant weather observed at this time

METAR text: RJNS 080100Z 22010KT 200V270 9000 FEW020 BKN/// 30/24 Q1009
Conditions at: RJNS (SHIZOUKA , JP) observed 0100 UTC 08 August 2020
Temperature: 30.0°C (86°F)
Dewpoint: 24.0°C (75°F) [RH = 70%]
Pressure (altimeter): 29.79 inches Hg (1009.0 mb)
Winds: from the SW (220 degrees) at 12 MPH (10 knots; 5.1 m/s)
Visibility: 6 miles ( 9 km)
Ceiling: at least 12,000 feet AGL
Clouds: few clouds at 2000 feet AGL
Weather: no significant weather observed at this time

METAR text: RJNS 080000Z 24007KT 9999 FEW020 SCT/// 29/24 Q1010
Conditions at: RJNS (SHIZOUKA , JP) observed 0000 UTC 08 August 2020
Temperature: 29.0°C (84°F)
Dewpoint: 24.0°C (75°F) [RH = 74%]
Pressure (altimeter): 29.82 inches Hg (1010.0 mb)
Winds: from the WSW (240 degrees) at 8 MPH (7 knots; 3.6 m/s)
Visibility: 6 or more miles (10+ km)
Ceiling: at least 12,000 feet AGL
Clouds: few clouds at 2000 feet AGL
Weather: no significant weather observed at this time

METAR text: RJNS 072300Z 24007KT 9999 FEW020 BKN/// 27/24 Q1010
Conditions at: RJNS (SHIZOUKA , JP) observed 2300 UTC 07 August 2020
Temperature: 27.0°C (81°F)
Dewpoint: 24.0°C (75°F) [RH = 84%]
Pressure (altimeter): 29.82 inches Hg (1010.0 mb)
Winds: from the WSW (240 degrees) at 8 MPH (7 knots; 3.6 m/s)
Visibility: 6 or more miles (10+ km)
Ceiling: at least 12,000 feet AGL
Clouds: few clouds at 2000 feet AGL
Weather: no significant weather observed at this time

METAR text: RJNS 072230Z 22008KT 9999 FEW020 BKN/// 27/24 Q1010
Conditions at: RJNS (SHIZOUKA , JP) observed 2230 UTC 07 August 2020
Temperature: 27.0°C (81°F)
Dewpoint: 24.0°C (75°F) [RH = 84%]
Pressure (altimeter): 29.82 inches Hg (1010.0 mb)
Winds: from the SW (220 degrees) at 9 MPH (8 knots; 4.1 m/s)
Visibility: 6 or more miles (10+ km)
Ceiling: at least 12,000 feet AGL
Clouds: few clouds at 2000 feet AGL
Weather: no significant weather observed at this time

METAR text: RJNS 071200Z 24010KT 9999 FEW008 BKN/// 27/27 Q1010
Conditions at: RJNS (SHIZOUKA , JP) observed 1200 UTC 07 August 2020
Temperature: 27.0°C (81°F)
Dewpoint: 27.0°C (81°F) [RH = 100%]
Pressure (altimeter): 29.82 inches Hg (1010.0 mb)
Winds: from the WSW (240 degrees) at 12 MPH (10 knots; 5.1 m/s)
Visibility: 6 or more miles (10+ km)
Ceiling: at least 12,000 feet AGL
Clouds: few clouds at 800 feet AGL
Weather: no significant weather observed at this time

METAR text: RJNS 071100Z 24013KT 9999 FEW010 BKN/// 27/27 Q1010
Conditions at: RJNS (SHIZOUKA , JP) observed 1100 UTC 07 August 2020
Temperature: 27.0°C (81°F)
Dewpoint: 27.0°C (81°F) [RH = 100%]
Pressure (altimeter): 29.82 inches Hg (1010.0 mb)
Winds: from the WSW (240 degrees) at 15 MPH (13 knots; 6.7 m/s)
Visibility: 6 or more miles (10+ km)
Ceiling: at least 12,000 feet AGL
Clouds: few clouds at 1000 feet AGL
Weather: no significant weather observed at this time

METAR text: RJNS 071000Z 25014KT 9999 FEW015 BKN/// 27/27 Q1009
Conditions at: RJNS (SHIZOUKA , JP) observed 1000 UTC 07 August 2020
Temperature: 27.0°C (81°F)
Dewpoint: 27.0°C (81°F) [RH = 100%]
Pressure (altimeter): 29.79 inches Hg (1009.0 mb)
Winds: from the WSW (250 degrees) at 16 MPH (14 knots; 7.2 m/s)
Visibility: 6 or more miles (10+ km)
Ceiling: at least 12,000 feet AGL
Clouds: few clouds at 1500 feet AGL
Weather: no significant weather observed at this time

Forecast for: RJNS (SHIZOUKA , JP)
Text: TAF RJNS 081705Z 0818/1000 26012KT 9999 FEW008 BKN015
Forecast period: 1800 UTC 08 August 2020 to 0000 UTC 10 August 2020
Forecast type: FROM: standard forecast or significant change
Winds: from the W (260 degrees) at 14 MPH (12 knots; 6.2 m/s)
Visibility: 6 or more miles (10+ km)
Ceiling: 1500 feet AGL
Clouds: few clouds at 800 feet AGL
broken clouds at 1500 feet AGL
Weather: no significant weather forecast for this period